createdAt,value
2019-01-21T00:00:06.991Z,34.90
2019-01-21T00:01:06.945Z,31.40
2019-01-21T00:02:06.902Z,32.80
2019-01-21T00:03:14.076Z,31.30
2019-01-21T00:04:07.903Z,33.00
2019-01-21T00:05:06.954Z,35.80
2019-01-21T00:06:06.867Z,33.10
2019-01-21T00:07:06.931Z,34.60
2019-01-21T00:08:06.880Z,33.50
2019-01-21T00:09:06.859Z,32.50
2019-01-21T00:10:06.847Z,34.30
2019-01-21T00:11:06.825Z,32.40
2019-01-21T00:12:06.847Z,30.20
2019-01-21T00:13:06.853Z,32.50
2019-01-21T00:14:06.840Z,30.90
2019-01-21T00:15:07.673Z,31.00
2019-01-21T00:16:06.764Z,31.10
2019-01-21T00:17:06.777Z,30.90
2019-01-21T00:18:06.740Z,30.90
2019-01-21T00:19:06.771Z,29.90
2019-01-21T00:20:06.746Z,31.30
2019-01-21T00:21:06.706Z,33.30
2019-01-21T00:22:06.747Z,31.60
2019-01-21T00:23:06.720Z,32.80
2019-01-21T00:24:06.688Z,32.70
2019-01-21T00:25:06.745Z,34.10
2019-01-21T00:26:06.661Z,32.90
2019-01-21T00:27:06.765Z,33.00
2019-01-21T00:28:06.698Z,31.90
2019-01-21T00:29:06.667Z,32.40
2019-01-21T00:30:06.636Z,35.20
2019-01-21T00:31:06.653Z,34.40
2019-01-21T00:32:06.612Z,34.30
2019-01-21T00:33:06.780Z,34.10
2019-01-21T00:34:06.614Z,35.30
2019-01-21T00:35:06.600Z,35.90
2019-01-21T00:36:06.546Z,34.70
2019-01-21T00:37:06.566Z,36.40
2019-01-21T00:38:06.562Z,34.60
2019-01-21T00:39:06.541Z,34.40
2019-01-21T00:40:06.532Z,36.10
2019-01-21T00:41:06.537Z,36.20
2019-01-21T00:42:06.563Z,36.10
2019-01-21T00:43:06.556Z,35.30
2019-01-21T00:44:06.461Z,39.50
2019-01-21T00:45:06.634Z,36.80
2019-01-21T00:46:06.497Z,36.40
2019-01-21T00:47:06.560Z,35.10
2019-01-21T00:48:06.461Z,35.40
2019-01-21T00:49:06.517Z,34.20
2019-01-21T00:50:06.440Z,36.60
2019-01-21T00:51:06.465Z,35.50
2019-01-21T00:52:06.484Z,36.40
2019-01-21T00:53:06.446Z,37.00
2019-01-21T00:54:06.447Z,33.50
2019-01-21T00:55:06.466Z,34.50
2019-01-21T00:56:06.387Z,33.70
2019-01-21T00:57:06.346Z,33.70
2019-01-21T00:58:06.439Z,36.20
2019-01-21T00:59:06.396Z,36.90
2019-01-21T01:00:06.406Z,34.80
2019-01-21T01:01:06.420Z,34.40
2019-01-21T01:02:06.404Z,33.80
2019-01-21T01:03:06.317Z,34.70
2019-01-21T01:04:06.282Z,35.10
2019-01-21T01:05:06.250Z,38.70
2019-01-21T01:06:06.268Z,35.10
2019-01-21T01:07:06.244Z,38.30
2019-01-21T01:08:06.256Z,35.50
2019-01-21T01:09:06.255Z,35.80
2019-01-21T01:10:06.206Z,37.70
2019-01-21T01:11:06.196Z,40.20
2019-01-21T01:12:06.199Z,36.60
2019-01-21T01:13:06.244Z,36.70
2019-01-21T01:14:06.163Z,36.90
2019-01-21T01:15:06.180Z,36.10
2019-01-21T01:16:06.137Z,36.20
2019-01-21T01:17:06.204Z,37.20
2019-01-21T01:18:06.174Z,38.20
2019-01-21T01:19:06.139Z,36.60
2019-01-21T01:20:06.169Z,38.50
2019-01-21T01:21:06.096Z,38.90
2019-01-21T01:22:06.072Z,37.20
2019-01-21T01:23:06.127Z,38.90
2019-01-21T01:24:06.126Z,38.30
2019-01-21T01:25:06.078Z,39.10
2019-01-21T01:26:06.080Z,39.50
2019-01-21T01:27:06.068Z,39.30
2019-01-21T01:28:06.004Z,37.10
2019-01-21T01:29:06.010Z,40.20
2019-01-21T01:30:06.029Z,37.90
2019-01-21T01:31:06.007Z,37.60
2019-01-21T01:32:06.036Z,38.00
2019-01-21T01:33:05.954Z,37.70
2019-01-21T01:34:05.958Z,36.20
2019-01-21T01:35:05.974Z,35.80
2019-01-21T01:36:06.674Z,34.20
2019-01-21T01:37:06.008Z,44.70
2019-01-21T01:38:05.988Z,62.60
2019-01-21T01:39:05.915Z,44.70
2019-01-21T01:40:05.938Z,48.50
2019-01-21T01:41:05.913Z,51.90
2019-01-21T01:42:05.884Z,47.60
2019-01-21T01:43:05.882Z,45.90
2019-01-21T01:44:05.860Z,43.80
2019-01-21T01:45:05.879Z,36.00
2019-01-21T01:46:05.877Z,35.80
2019-01-21T01:47:05.854Z,36.80
2019-01-21T01:48:05.883Z,36.20
2019-01-21T01:49:05.835Z,38.60
2019-01-21T01:50:05.801Z,38.90
2019-01-21T01:51:05.840Z,41.50
2019-01-21T01:52:05.844Z,51.20
2019-01-21T01:53:05.798Z,62.10
2019-01-21T01:54:05.791Z,78.40
2019-01-21T01:55:05.815Z,81.80
2019-01-21T01:56:05.768Z,64.30
2019-01-21T01:57:05.788Z,86.90
2019-01-21T01:58:05.760Z,93.60
2019-01-21T01:59:05.752Z,68.50
2019-01-21T02:00:05.781Z,51.80
2019-01-21T02:01:05.723Z,40.80
2019-01-21T02:02:05.697Z,41.00
2019-01-21T02:03:05.718Z,37.50
2019-01-21T02:04:05.679Z,37.30
2019-01-21T02:05:05.700Z,37.70
2019-01-21T02:06:05.669Z,37.80
2019-01-21T02:07:05.654Z,36.40
2019-01-21T02:08:05.647Z,35.70
2019-01-21T02:09:05.626Z,36.80
2019-01-21T02:10:05.628Z,37.50
2019-01-21T02:11:05.632Z,37.40
2019-01-21T02:12:05.587Z,38.50
2019-01-21T02:13:05.594Z,37.60
2019-01-21T02:14:05.648Z,37.90
2019-01-21T02:15:05.579Z,35.20
2019-01-21T02:16:05.561Z,37.40
2019-01-21T02:17:05.589Z,36.80
2019-01-21T02:18:05.548Z,47.30
2019-01-21T02:19:05.521Z,48.40
2019-01-21T02:20:05.529Z,40.60
2019-01-21T02:21:05.586Z,40.80
2019-01-21T02:22:05.481Z,38.80
2019-01-21T02:23:05.452Z,34.90
2019-01-21T02:24:05.446Z,36.80
2019-01-21T02:25:05.469Z,36.20
2019-01-21T02:26:05.429Z,35.80
2019-01-21T02:27:05.450Z,36.50
2019-01-21T02:28:05.417Z,36.40
2019-01-21T02:29:05.439Z,38.20
2019-01-21T02:30:05.461Z,34.80
2019-01-21T02:31:05.380Z,33.30
2019-01-21T02:32:05.398Z,35.40
2019-01-21T02:33:05.356Z,35.30
2019-01-21T02:34:05.395Z,34.90
2019-01-21T02:35:05.383Z,35.20
2019-01-21T02:36:05.339Z,35.60
2019-01-21T02:37:05.353Z,35.10
2019-01-21T02:38:05.451Z,35.80
2019-01-21T02:39:05.321Z,38.00
2019-01-21T02:40:05.312Z,42.70
2019-01-21T02:41:05.261Z,38.20
2019-01-21T02:42:05.276Z,39.30
2019-01-21T02:43:05.304Z,41.80
2019-01-21T02:44:05.274Z,37.40
2019-01-21T02:45:05.225Z,35.50
2019-01-21T02:46:05.204Z,37.20
2019-01-21T02:47:05.245Z,38.10
2019-01-21T02:48:05.267Z,37.20
2019-01-21T02:49:05.213Z,40.10
2019-01-21T02:50:05.185Z,40.20
2019-01-21T02:51:05.282Z,40.40
2019-01-21T02:52:05.214Z,38.60
2019-01-21T02:53:05.204Z,38.50
2019-01-21T02:54:05.277Z,40.50
2019-01-21T02:55:05.190Z,41.20
2019-01-21T02:56:05.366Z,43.60
2019-01-21T02:57:05.237Z,40.40
2019-01-21T02:58:05.379Z,37.90
2019-01-21T02:59:05.380Z,36.80
2019-01-21T03:00:05.357Z,37.70
2019-01-21T03:01:05.154Z,37.70
2019-01-21T03:02:05.200Z,37.50
2019-01-21T03:03:05.197Z,41.90
2019-01-21T03:04:05.020Z,44.80
2019-01-21T03:05:05.127Z,46.20
2019-01-21T03:06:05.041Z,43.30
2019-01-21T03:07:05.299Z,44.00
2019-01-21T03:08:05.221Z,46.30
2019-01-21T03:09:05.008Z,41.90
2019-01-21T03:10:05.063Z,41.70
2019-01-21T03:11:04.996Z,40.30
2019-01-21T03:12:05.043Z,39.30
2019-01-21T03:13:05.218Z,40.80
2019-01-21T03:14:05.380Z,38.20
2019-01-21T03:15:05.092Z,39.00
2019-01-21T03:16:05.101Z,40.80
2019-01-21T03:17:04.977Z,41.30
2019-01-21T03:19:22.500Z,41.90
2019-01-21T03:20:22.489Z,39.80
2019-01-21T03:21:22.386Z,39.90
2019-01-21T03:22:22.420Z,38.60
2019-01-21T03:23:22.377Z,40.30
2019-01-21T03:24:22.539Z,40.10
2019-01-21T03:25:23.058Z,43.00
2019-01-21T03:26:22.489Z,43.80
2019-01-21T03:27:22.417Z,39.70
2019-01-21T03:28:22.494Z,39.20
2019-01-21T03:29:22.397Z,38.20
2019-01-21T03:30:22.477Z,38.80
2019-01-21T03:31:22.303Z,38.10
2019-01-21T03:32:22.429Z,34.50
2019-01-21T03:33:22.456Z,39.40
2019-01-21T03:34:22.305Z,38.20
2019-01-21T03:35:22.342Z,38.50
2019-01-21T03:36:22.638Z,38.10
2019-01-21T03:37:22.580Z,37.60
2019-01-21T03:38:22.333Z,40.40
2019-01-21T03:39:22.620Z,39.60
2019-01-21T03:40:22.446Z,37.20
2019-01-21T03:41:23.063Z,38.80
2019-01-21T03:42:22.599Z,43.10
2019-01-21T03:43:22.337Z,39.70
2019-01-21T03:44:22.331Z,38.90
2019-01-21T03:45:22.281Z,37.90
2019-01-21T03:46:22.384Z,38.70
2019-01-21T03:47:22.136Z,42.10
2019-01-21T03:48:22.179Z,42.00
2019-01-21T03:49:23.062Z,40.60
2019-01-21T03:50:22.168Z,40.30
2019-01-21T03:51:23.127Z,41.70
2019-01-21T03:52:22.170Z,40.70
2019-01-21T03:53:22.355Z,39.90
2019-01-21T03:54:27.922Z,39.10
2019-01-21T03:55:22.303Z,38.20
2019-01-21T03:56:22.572Z,38.20
2019-01-21T03:57:22.400Z,39.60
2019-01-21T03:58:22.268Z,40.40
2019-01-21T03:59:22.121Z,39.80
2019-01-21T04:00:22.562Z,38.30
2019-01-21T04:01:22.317Z,37.70
2019-01-21T04:02:22.040Z,40.60
2019-01-21T04:03:22.242Z,41.00
2019-01-21T04:04:22.093Z,43.00
2019-01-21T04:05:22.084Z,41.60
2019-01-21T04:06:22.343Z,43.00
2019-01-21T04:07:22.126Z,39.70
2019-01-21T04:08:22.118Z,42.20
2019-01-21T04:09:22.085Z,43.40
2019-01-21T04:10:22.316Z,45.10
2019-01-21T04:11:22.204Z,47.70
2019-01-21T04:12:22.145Z,45.40
2019-01-21T04:13:22.501Z,45.10
2019-01-21T04:14:22.040Z,43.50
2019-01-21T04:15:22.027Z,44.90
2019-01-21T04:16:22.166Z,44.20
2019-01-21T04:17:22.078Z,47.20
2019-01-21T04:18:24.620Z,47.30
2019-01-21T04:19:21.994Z,47.90
2019-01-21T04:20:22.305Z,44.10
2019-01-21T04:21:21.936Z,45.50
2019-01-21T04:22:22.037Z,43.90
2019-01-21T04:23:21.931Z,45.00
2019-01-21T04:24:21.868Z,48.20
2019-01-21T04:25:21.816Z,46.70
2019-01-21T04:26:21.886Z,49.90
2019-01-21T04:27:21.993Z,46.40
2019-01-21T04:28:21.865Z,47.80
2019-01-21T04:29:21.800Z,46.30
2019-01-21T04:30:21.827Z,50.00
2019-01-21T04:31:21.762Z,48.80
2019-01-21T04:32:21.974Z,53.80
2019-01-21T04:33:21.985Z,46.50
2019-01-21T04:34:21.708Z,49.20
2019-01-21T04:35:21.784Z,48.00
2019-01-21T04:36:21.826Z,49.50
2019-01-21T04:37:21.695Z,50.40
2019-01-21T04:38:21.670Z,48.80
2019-01-21T04:39:21.827Z,48.30
2019-01-21T04:40:21.786Z,49.80
2019-01-21T04:41:21.599Z,46.60
2019-01-21T04:42:21.692Z,51.60
2019-01-21T04:43:22.022Z,53.60
2019-01-21T04:44:21.746Z,49.50
2019-01-21T04:45:21.981Z,53.40
2019-01-21T04:47:33.386Z,48.80
2019-01-21T04:48:41.000Z,51.60
2019-01-21T04:49:42.829Z,50.60
2019-01-21T04:50:33.426Z,54.20
2019-01-21T04:51:33.295Z,55.30
2019-01-21T04:52:33.402Z,54.70
2019-01-21T04:53:33.247Z,53.90
2019-01-21T04:54:33.308Z,52.90
2019-01-21T04:55:33.311Z,51.60
2019-01-21T04:56:33.301Z,52.00
2019-01-21T04:57:33.257Z,51.20
2019-01-21T04:58:33.233Z,53.30
2019-01-21T04:59:33.160Z,51.80
2019-01-21T05:00:33.164Z,53.10
2019-01-21T05:01:43.130Z,50.20
2019-01-21T05:02:33.161Z,53.40
2019-01-21T05:03:33.163Z,53.40
2019-01-21T05:04:33.108Z,55.00
2019-01-21T05:05:33.162Z,54.60
2019-01-21T05:06:33.121Z,55.90
2019-01-21T05:07:33.106Z,55.90
2019-01-21T05:08:33.096Z,56.20
2019-01-21T05:09:33.141Z,51.70
2019-01-21T05:10:33.114Z,51.90
2019-01-21T05:11:33.086Z,54.30
2019-01-21T05:12:33.169Z,52.00
2019-01-21T05:13:33.508Z,53.40
2019-01-21T05:14:33.019Z,54.10
2019-01-21T05:15:32.985Z,53.60
2019-01-21T05:16:33.034Z,50.50
2019-01-21T05:17:33.032Z,50.60
2019-01-21T05:18:33.012Z,55.70
2019-01-21T05:19:32.970Z,52.60
2019-01-21T05:20:32.962Z,54.80
2019-01-21T05:21:32.931Z,57.00
2019-01-21T05:22:32.987Z,59.70
2019-01-21T05:23:32.987Z,57.30
2019-01-21T05:24:32.920Z,57.20
2019-01-21T05:25:32.956Z,57.50
2019-01-21T05:26:32.884Z,53.90
2019-01-21T05:27:32.869Z,56.70
2019-01-21T05:28:32.926Z,54.50
2019-01-21T05:29:32.903Z,54.20
2019-01-21T05:30:32.891Z,53.60
2019-01-21T05:31:32.854Z,54.70
2019-01-21T05:32:32.883Z,53.60
2019-01-21T05:33:32.924Z,60.50
2019-01-21T05:34:33.513Z,56.90
2019-01-21T05:35:32.782Z,60.70
2019-01-21T05:36:32.957Z,61.10
2019-01-21T05:37:32.796Z,57.80
2019-01-21T05:38:32.791Z,58.20
2019-01-21T05:39:32.764Z,55.60
2019-01-21T05:40:32.743Z,53.80
2019-01-21T05:41:32.820Z,52.20
2019-01-21T05:42:32.834Z,54.60
2019-01-21T05:43:32.743Z,52.40
2019-01-21T05:44:32.780Z,53.60
2019-01-21T05:45:32.695Z,54.50
2019-01-21T05:46:32.719Z,60.30
2019-01-21T05:47:32.727Z,59.00
2019-01-21T05:48:32.668Z,55.30
2019-01-21T05:49:33.986Z,56.10
2019-01-21T05:50:32.760Z,58.30
2019-01-21T05:51:32.671Z,56.50
2019-01-21T05:52:32.623Z,53.70
2019-01-21T05:53:32.815Z,53.90
2019-01-21T05:54:32.714Z,56.70
2019-01-21T05:55:32.721Z,56.10
2019-01-21T05:56:32.681Z,54.20
2019-01-21T05:57:32.624Z,55.20
2019-01-21T05:58:33.512Z,54.70
2019-01-21T05:59:32.568Z,53.30
2019-01-21T06:00:33.511Z,51.40
2019-01-21T06:01:32.612Z,53.60
2019-01-21T06:02:32.631Z,51.50
2019-01-21T06:03:32.899Z,50.20
2019-01-21T06:04:32.573Z,53.10
2019-01-21T06:05:33.298Z,51.30
2019-01-21T06:06:32.659Z,50.90
2019-01-21T06:08:45.074Z,45.70
2019-01-21T06:09:44.683Z,49.10
2019-01-21T06:10:44.662Z,50.90
2019-01-21T06:11:44.755Z,52.50
2019-01-21T06:12:44.806Z,58.30
2019-01-21T06:13:44.667Z,64.00
2019-01-21T06:14:44.975Z,65.40
2019-01-21T06:15:44.708Z,61.50
2019-01-21T06:16:52.619Z,62.40
2019-01-21T06:17:45.027Z,59.60
2019-01-21T06:18:46.553Z,64.00
2019-01-21T06:19:45.973Z,60.70
2019-01-21T06:20:45.633Z,59.80
2019-01-21T06:21:46.821Z,57.50
2019-01-21T06:22:44.646Z,56.20
2019-01-21T06:23:44.484Z,57.20
2019-01-21T06:24:44.670Z,56.00
2019-01-21T06:25:44.719Z,56.30
2019-01-21T06:26:44.455Z,56.70
2019-01-21T06:27:44.491Z,59.40
2019-01-21T06:28:44.455Z,58.40
2019-01-21T06:29:44.429Z,59.70
2019-01-21T06:30:44.452Z,58.60
2019-01-21T06:31:44.421Z,61.20
2019-01-21T06:32:44.415Z,61.10
2019-01-21T06:33:44.421Z,59.20
2019-01-21T06:34:44.371Z,55.70
2019-01-21T06:35:44.443Z,59.00
2019-01-21T06:36:44.350Z,59.70
2019-01-21T06:37:44.341Z,59.10
2019-01-21T06:38:44.393Z,60.70
2019-01-21T06:39:44.330Z,62.00
2019-01-21T06:40:44.474Z,59.00
2019-01-21T06:41:44.453Z,57.70
2019-01-21T06:42:44.473Z,60.40
2019-01-21T06:43:45.384Z,57.80
2019-01-21T06:44:44.296Z,57.40
2019-01-21T06:45:45.125Z,58.50
2019-01-21T06:46:44.310Z,58.50
2019-01-21T06:47:44.310Z,59.10
2019-01-21T06:48:44.437Z,62.20
2019-01-21T06:49:44.327Z,62.50
2019-01-21T06:50:44.283Z,66.20
2019-01-21T06:51:44.239Z,65.40
2019-01-21T06:52:44.251Z,66.70
2019-01-21T06:53:44.252Z,63.30
2019-01-21T06:54:44.191Z,62.60
2019-01-21T06:55:44.178Z,66.90
2019-01-21T06:56:47.534Z,65.60
2019-01-21T06:57:44.203Z,65.10
2019-01-21T06:58:44.177Z,64.60
2019-01-21T06:59:44.121Z,59.50
2019-01-21T07:00:44.119Z,59.40
2019-01-21T07:01:44.107Z,62.40
2019-01-21T07:02:44.096Z,73.00
2019-01-21T07:03:44.121Z,62.80
2019-01-21T07:04:44.098Z,61.30
2019-01-21T07:05:44.099Z,62.50
2019-01-21T07:06:44.070Z,60.90
2019-01-21T07:07:44.078Z,61.70
2019-01-21T07:08:44.058Z,62.30
2019-01-21T07:09:44.038Z,62.20
2019-01-21T07:10:44.093Z,63.70
2019-01-21T07:11:43.978Z,62.00
2019-01-21T07:12:44.001Z,67.60
2019-01-21T07:13:43.972Z,64.00
2019-01-21T07:14:43.983Z,63.20
2019-01-21T07:15:43.972Z,61.60
2019-01-21T07:16:43.979Z,65.40
2019-01-21T07:17:43.962Z,66.90
2019-01-21T07:18:43.946Z,62.80
2019-01-21T07:19:46.254Z,68.00
2019-01-21T07:20:43.903Z,69.80
2019-01-21T07:21:43.917Z,70.50
2019-01-21T07:22:43.897Z,71.70
2019-01-21T07:23:43.895Z,75.20
2019-01-21T07:24:43.902Z,71.40
2019-01-21T07:25:43.859Z,68.90
2019-01-21T07:26:43.854Z,69.90
2019-01-21T07:27:43.846Z,69.30
2019-01-21T07:28:43.835Z,66.60
2019-01-21T07:29:43.812Z,69.50
2019-01-21T07:30:43.821Z,65.50
2019-01-21T07:31:43.807Z,63.00
2019-01-21T07:32:43.833Z,63.60
2019-01-21T07:33:43.794Z,65.40
2019-01-21T07:34:43.775Z,65.20
2019-01-21T07:35:43.770Z,66.90
2019-01-21T07:36:43.762Z,68.10
2019-01-21T07:37:43.733Z,66.70
2019-01-21T07:38:43.732Z,65.50
2019-01-21T07:39:43.731Z,63.20
2019-01-21T07:40:43.721Z,64.90
2019-01-21T07:41:43.720Z,66.50
2019-01-21T07:42:43.738Z,67.00
2019-01-21T07:43:43.700Z,63.70
2019-01-21T07:44:43.672Z,67.90
2019-01-21T07:45:43.656Z,65.90
2019-01-21T07:46:43.661Z,64.00
2019-01-21T07:47:43.629Z,61.60
2019-01-21T07:48:43.652Z,61.50
2019-01-21T07:49:43.660Z,64.00
2019-01-21T07:50:43.628Z,61.70
2019-01-21T07:51:43.620Z,61.80
2019-01-21T07:52:43.643Z,60.40
2019-01-21T07:53:43.579Z,62.20
2019-01-21T07:54:43.585Z,62.20
2019-01-21T07:55:43.550Z,62.90
2019-01-21T07:56:43.557Z,65.30
2019-01-21T07:57:43.538Z,66.50
2019-01-21T07:58:43.580Z,64.40
2019-01-21T07:59:43.550Z,61.00
2019-01-21T08:00:43.508Z,60.50
2019-01-21T08:01:43.497Z,59.80
2019-01-21T08:02:43.543Z,59.30
2019-01-21T08:03:43.500Z,58.00
2019-01-21T08:04:43.491Z,57.80
2019-01-21T08:05:43.479Z,58.80
2019-01-21T08:06:43.458Z,58.90
2019-01-21T08:07:43.428Z,57.50
2019-01-21T08:08:43.423Z,57.00
2019-01-21T08:09:43.487Z,61.40
2019-01-21T08:10:43.407Z,61.60
2019-01-21T08:11:43.402Z,56.90
2019-01-21T08:12:43.394Z,52.50
2019-01-21T08:13:43.369Z,54.40
2019-01-21T08:14:43.367Z,56.60
2019-01-21T08:15:43.381Z,55.40
2019-01-21T08:16:43.388Z,56.80
2019-01-21T08:17:43.328Z,54.60
2019-01-21T08:18:43.370Z,51.70
2019-01-21T08:19:43.325Z,53.80
2019-01-21T08:20:43.374Z,54.30
2019-01-21T08:21:43.319Z,53.30
2019-01-21T08:22:43.303Z,53.30
2019-01-21T08:23:43.277Z,52.10
2019-01-21T08:24:43.284Z,54.00
2019-01-21T08:25:43.287Z,52.60
2019-01-21T08:26:43.253Z,55.30
2019-01-21T08:27:43.225Z,54.00
2019-01-21T08:28:43.229Z,52.50
2019-01-21T08:29:43.229Z,53.30
2019-01-21T08:30:43.235Z,52.40
2019-01-21T08:31:43.218Z,53.70
2019-01-21T08:32:43.187Z,54.40
2019-01-21T08:33:43.176Z,54.10
2019-01-21T08:34:43.216Z,51.70
2019-01-21T08:35:43.150Z,56.30
2019-01-21T08:36:43.172Z,56.10
2019-01-21T08:37:43.205Z,54.90
2019-01-21T08:38:43.150Z,59.50
2019-01-21T08:39:43.114Z,58.50
2019-01-21T08:40:43.150Z,58.20
2019-01-21T08:41:43.118Z,58.50
2019-01-21T08:42:43.104Z,58.60
2019-01-21T08:43:43.067Z,55.60
2019-01-21T08:44:43.096Z,56.90
2019-01-21T08:45:43.055Z,56.50
2019-01-21T08:46:43.035Z,56.10
2019-01-21T08:47:43.032Z,55.20
2019-01-21T08:48:43.050Z,52.50
2019-01-21T08:49:43.090Z,55.00
2019-01-21T08:50:43.006Z,52.10
2019-01-21T08:51:42.994Z,50.60
2019-01-21T08:52:42.982Z,50.90
2019-01-21T08:53:42.970Z,54.40
2019-01-21T08:54:42.980Z,53.40
2019-01-21T08:55:42.986Z,54.50
2019-01-21T08:56:42.925Z,52.70
2019-01-21T08:57:42.935Z,52.70
2019-01-21T08:58:42.936Z,52.20
2019-01-21T08:59:42.909Z,49.60
2019-01-21T09:00:42.897Z,50.10
2019-01-21T09:01:42.909Z,51.30
2019-01-21T09:02:42.894Z,52.80
2019-01-21T09:03:42.863Z,52.40
2019-01-21T09:04:42.928Z,52.70
2019-01-21T09:05:42.867Z,48.70
2019-01-21T09:06:42.860Z,47.60
2019-01-21T09:07:42.836Z,50.20
2019-01-21T09:08:51.574Z,49.80
2019-01-21T09:09:42.852Z,48.80
2019-01-21T09:10:42.794Z,49.30
2019-01-21T09:11:42.783Z,52.10
2019-01-21T09:12:42.812Z,49.60
2019-01-21T09:13:42.786Z,48.60
2019-01-21T09:14:42.766Z,49.50
2019-01-21T09:15:42.760Z,49.20
2019-01-21T09:16:42.728Z,47.40
2019-01-21T09:19:13.807Z,48.40
2019-01-21T09:20:13.831Z,48.60
2019-01-21T09:21:13.631Z,51.30
2019-01-21T09:22:13.557Z,52.10
2019-01-21T09:23:13.586Z,50.60
2019-01-21T09:24:13.598Z,50.60
2019-01-21T09:25:13.676Z,50.60
2019-01-21T09:26:13.914Z,48.20
2019-01-21T09:27:13.582Z,46.20
2019-01-21T09:28:13.577Z,45.20
2019-01-21T09:29:13.733Z,43.30
2019-01-21T09:30:13.544Z,47.20
2019-01-21T09:31:13.766Z,45.10
2019-01-21T09:32:13.929Z,42.50
2019-01-21T09:33:13.916Z,44.40
2019-01-21T09:34:13.499Z,44.90
2019-01-21T09:35:13.475Z,45.30
2019-01-21T09:36:13.386Z,45.10
2019-01-21T09:37:13.385Z,48.30
2019-01-21T09:38:13.918Z,46.50
2019-01-21T09:39:13.397Z,45.50
2019-01-21T09:40:13.398Z,47.90
2019-01-21T09:42:31.052Z,46.90
2019-01-21T09:44:48.353Z,47.00
2019-01-21T09:45:57.793Z,48.80
2019-01-21T09:46:57.854Z,48.80
2019-01-21T09:47:58.644Z,49.30
2019-01-21T09:51:09.523Z,52.50
2019-01-21T09:53:27.379Z,51.50
2019-01-21T09:54:26.835Z,51.80
2019-01-21T09:55:26.882Z,53.30
2019-01-21T09:56:26.833Z,51.30
2019-01-21T09:57:27.038Z,50.90
2019-01-21T09:58:26.907Z,51.40
2019-01-21T09:59:35.140Z,50.30
2019-01-21T10:00:26.742Z,52.10
2019-01-21T10:01:26.773Z,49.90
2019-01-21T10:02:26.724Z,50.10
2019-01-21T10:03:26.753Z,52.80
2019-01-21T10:04:26.695Z,49.50
2019-01-21T10:05:26.714Z,52.10
2019-01-21T10:06:26.712Z,50.90
2019-01-21T10:07:26.715Z,50.40
2019-01-21T10:08:26.729Z,51.50
2019-01-21T10:09:26.662Z,50.90
2019-01-21T10:10:26.662Z,53.50
2019-01-21T10:11:26.643Z,50.70
2019-01-21T10:12:26.652Z,50.40
2019-01-21T10:13:26.655Z,48.70
2019-01-21T10:14:26.654Z,51.50
2019-01-21T10:15:26.650Z,47.90
2019-01-21T10:16:26.617Z,49.80
2019-01-21T10:17:26.570Z,50.40
2019-01-21T10:18:26.593Z,51.60
2019-01-21T10:19:26.558Z,51.30
2019-01-21T10:20:26.595Z,53.60
2019-01-21T10:21:26.532Z,52.20
2019-01-21T10:22:26.519Z,51.10
2019-01-21T10:23:26.512Z,53.60
2019-01-21T10:24:26.553Z,49.70
2019-01-21T10:25:26.494Z,50.90
2019-01-21T10:26:26.513Z,50.00
2019-01-21T10:27:26.518Z,51.70
2019-01-21T10:28:26.478Z,49.00
2019-01-21T10:29:26.460Z,51.20
2019-01-21T10:30:26.464Z,50.60
2019-01-21T10:31:26.448Z,51.80
2019-01-21T10:32:26.439Z,54.80
2019-01-21T10:33:26.422Z,51.60
2019-01-21T10:34:26.405Z,52.60
2019-01-21T10:35:26.403Z,52.90
2019-01-21T10:37:44.585Z,53.20
2019-01-21T10:39:53.950Z,50.60
2019-01-21T10:41:02.436Z,52.50
2019-01-21T10:42:04.489Z,54.50
2019-01-21T10:43:03.292Z,52.80
2019-01-21T10:44:03.455Z,50.80
2019-01-21T10:45:02.971Z,49.70
2019-01-21T10:46:03.040Z,49.70
2019-01-21T10:47:03.017Z,52.30
2019-01-21T10:48:03.035Z,50.40
2019-01-21T10:49:04.073Z,49.60
2019-01-21T10:50:02.652Z,52.70
2019-01-21T10:51:04.125Z,50.40
2019-01-21T10:51:53.794Z,53.60
2019-01-21T10:52:53.742Z,50.90
2019-01-21T10:53:53.779Z,51.40
2019-01-21T10:54:53.775Z,51.50
2019-01-21T10:55:53.720Z,52.40
2019-01-21T10:57:03.205Z,54.40
2019-01-21T10:57:53.741Z,54.30
2019-01-21T10:58:53.698Z,54.60
2019-01-21T10:59:53.716Z,56.80
2019-01-21T11:00:53.694Z,55.00
2019-01-21T11:01:53.703Z,57.40
2019-01-21T11:02:53.730Z,56.80
2019-01-21T11:03:53.688Z,57.10
2019-01-21T11:05:03.798Z,57.90
2019-01-21T11:05:53.678Z,56.50
2019-01-21T11:07:02.760Z,57.10
2019-01-21T11:08:03.777Z,58.60
2019-01-21T11:09:02.924Z,58.00
2019-01-21T11:10:01.904Z,58.50
2019-01-21T11:11:03.439Z,56.20
2019-01-21T11:12:02.962Z,55.90
2019-01-21T11:14:12.490Z,62.30
2019-01-21T11:15:20.465Z,62.10
2019-01-21T11:16:19.050Z,59.40
2019-01-21T11:17:21.334Z,59.60
2019-01-21T11:18:20.445Z,60.60
2019-01-21T11:19:22.047Z,61.20
2019-01-21T11:20:21.063Z,60.80
2019-01-21T11:21:20.985Z,61.50
2019-01-21T11:22:10.892Z,60.30
2019-01-21T11:23:10.956Z,61.30
2019-01-21T11:24:10.908Z,60.10
2019-01-21T11:25:10.848Z,60.40
2019-01-21T11:26:13.010Z,61.80
2019-01-21T11:27:10.860Z,62.70
2019-01-21T11:28:10.912Z,64.10
2019-01-21T11:29:10.816Z,59.90
2019-01-21T11:30:10.857Z,61.70
2019-01-21T11:31:10.782Z,57.90
2019-01-21T11:32:10.805Z,60.00
2019-01-21T11:33:10.762Z,60.70
2019-01-21T11:34:10.813Z,62.20
2019-01-21T11:35:10.748Z,58.50
2019-01-21T11:36:10.787Z,60.00
2019-01-21T11:37:10.744Z,60.70
2019-01-21T11:38:10.826Z,60.20
2019-01-21T11:39:10.743Z,59.00
2019-01-21T11:40:10.700Z,59.30
2019-01-21T11:41:10.693Z,60.30
2019-01-21T11:42:10.698Z,60.30
2019-01-21T11:43:10.702Z,59.70
2019-01-21T11:44:10.663Z,59.00
2019-01-21T11:45:10.663Z,60.50
2019-01-21T11:46:10.628Z,60.00
2019-01-21T11:47:10.647Z,56.60
2019-01-21T11:48:10.634Z,61.70
2019-01-21T11:49:10.637Z,57.00
2019-01-21T11:50:10.840Z,56.80
2019-01-21T11:51:10.613Z,58.70
2019-01-21T11:52:10.571Z,58.60
2019-01-21T11:53:10.580Z,58.00
2019-01-21T11:54:10.578Z,58.60
2019-01-21T11:55:10.579Z,60.80
2019-01-21T11:56:10.539Z,59.50
2019-01-21T11:57:10.548Z,56.70
2019-01-21T11:58:10.535Z,59.50
2019-01-21T11:59:10.547Z,56.90
2019-01-21T12:00:10.548Z,55.80
2019-01-21T12:01:10.473Z,55.80
2019-01-21T12:02:10.487Z,54.80
2019-01-21T12:03:10.478Z,54.00
2019-01-21T12:04:10.471Z,55.30
2019-01-21T12:05:10.463Z,53.70
2019-01-21T12:06:10.562Z,51.50
2019-01-21T12:07:10.435Z,53.20
2019-01-21T12:08:10.423Z,51.50
2019-01-21T12:09:10.405Z,50.40
2019-01-21T12:10:10.406Z,57.30
2019-01-21T12:11:10.389Z,53.50
2019-01-21T12:12:10.423Z,55.80
2019-01-21T12:13:10.405Z,53.70
2019-01-21T12:14:10.349Z,54.00
2019-01-21T12:15:10.357Z,52.60
2019-01-21T12:16:10.358Z,54.90
2019-01-21T12:17:10.334Z,52.80
2019-01-21T12:18:10.346Z,52.60
2019-01-21T12:19:10.306Z,51.80
2019-01-21T12:20:10.285Z,54.10
2019-01-21T12:21:10.288Z,50.50
2019-01-21T12:22:10.310Z,51.90
2019-01-21T12:23:10.311Z,48.10
2019-01-21T12:24:10.252Z,48.10
2019-01-21T12:25:10.226Z,50.20
2019-01-21T12:26:10.250Z,48.80
2019-01-21T12:27:10.231Z,49.40
2019-01-21T12:28:10.241Z,49.30
2019-01-21T12:29:10.234Z,49.40
2019-01-21T12:30:10.215Z,47.70
2019-01-21T12:31:10.176Z,49.40
2019-01-21T12:32:10.200Z,48.70
2019-01-21T12:33:10.170Z,52.30
2019-01-21T12:34:10.187Z,52.80
2019-01-21T12:35:10.210Z,54.30
2019-01-21T12:36:10.168Z,51.50
2019-01-21T12:37:10.116Z,54.00
2019-01-21T12:38:10.112Z,53.80
2019-01-21T12:39:10.103Z,53.20
2019-01-21T12:40:10.102Z,51.90
2019-01-21T12:41:10.058Z,53.60
2019-01-21T12:42:10.060Z,51.00
2019-01-21T12:43:10.047Z,51.90
2019-01-21T12:44:10.043Z,50.50
2019-01-21T12:45:10.085Z,51.50
2019-01-21T12:46:10.027Z,50.60
2019-01-21T12:47:10.043Z,50.70
2019-01-21T12:48:10.039Z,51.20
2019-01-21T12:49:09.999Z,52.00
2019-01-21T12:50:10.004Z,52.90
2019-01-21T12:51:10.038Z,48.20
2019-01-21T12:52:09.970Z,50.70
2019-01-21T12:53:09.964Z,49.40
2019-01-21T12:54:09.949Z,52.30
2019-01-21T12:55:09.944Z,51.70
2019-01-21T12:56:09.937Z,51.10
2019-01-21T12:57:09.932Z,51.20
2019-01-21T12:58:09.910Z,51.30
2019-01-21T12:59:15.856Z,51.70
2019-01-21T13:00:10.891Z,53.00
2019-01-21T13:01:09.907Z,47.90
2019-01-21T13:02:09.860Z,50.40
2019-01-21T13:03:09.856Z,49.90
2019-01-21T13:04:09.849Z,49.20
2019-01-21T13:05:09.823Z,47.40
2019-01-21T13:06:09.975Z,51.10
2019-01-21T13:07:09.839Z,48.10